sensor_id;sensor_type;location;lat;lon;timestamp;temperature;humidity
4908;DHT22;64375;51.540;7.364;2022-12-07T00:00:15;12.90;97.00
4908;DHT22;64375;51.540;7.364;2022-12-07T00:02:43;12.80;96.80
4908;DHT22;64375;51.540;7.364;2022-12-07T00:05:13;13.00;97.30
4908;DHT22;64375;51.540;7.364;2022-12-07T00:07:47;13.00;97.30
4908;DHT22;64375;51.540;7.364;2022-12-07T00:10:34;13.00;97.20
4908;DHT22;64375;51.540;7.364;2022-12-07T00:13:05;12.90;96.40
4908;DHT22;64375;51.540;7.364;2022-12-07T00:15:46;12.70;96.20
4908;DHT22;64375;51.540;7.364;2022-12-07T00:18:14;12.80;97.30
4908;DHT22;64375;51.540;7.364;2022-12-07T00:20:42;12.70;97.60
4908;DHT22;64375;51.540;7.364;2022-12-07T00:23:10;12.70;97.20
4908;DHT22;64375;51.540;7.364;2022-12-07T00:25:41;12.70;97.40
4908;DHT22;64375;51.540;7.364;2022-12-07T00:28:09;12.50;97.30
4908;DHT22;64375;51.540;7.364;2022-12-07T00:30:37;12.80;97.70
4908;DHT22;64375;51.540;7.364;2022-12-07T00:33:06;12.90;97.00
4908;DHT22;64375;51.540;7.364;2022-12-07T00:35:37;12.80;97.10
4908;DHT22;64375;51.540;7.364;2022-12-07T00:38:07;12.90;97.40
4908;DHT22;64375;51.540;7.364;2022-12-07T00:40:38;12.90;97.30
4908;DHT22;64375;51.540;7.364;2022-12-07T00:43:05;13.00;97.30
4908;DHT22;64375;51.540;7.364;2022-12-07T00:45:36;12.90;97.40
4908;DHT22;64375;51.540;7.364;2022-12-07T00:48:18;13.00;97.50
4908;DHT22;64375;51.540;7.364;2022-12-07T00:50:46;13.00;97.30
4908;DHT22;64375;51.540;7.364;2022-12-07T00:53:14;13.00;96.60
4908;DHT22;64375;51.540;7.364;2022-12-07T00:55:48;13.00;97.40
4908;DHT22;64375;51.540;7.364;2022-12-07T00:58:21;13.00;97.50
4908;DHT22;64375;51.540;7.364;2022-12-07T01:00:54;13.10;97.30
4908;DHT22;64375;51.540;7.364;2022-12-07T01:03:36;13.10;97.00
4908;DHT22;64375;51.540;7.364;2022-12-07T01:06:05;13.00;97.30
4908;DHT22;64375;51.540;7.364;2022-12-07T01:08:35;13.00;97.20
4908;DHT22;64375;51.540;7.364;2022-12-07T01:11:07;13.10;97.40
4908;DHT22;64375;51.540;7.364;2022-12-07T01:13:36;13.20;97.10
4908;DHT22;64375;51.540;7.364;2022-12-07T01:16:06;13.20;97.00
4908;DHT22;64375;51.540;7.364;2022-12-07T01:18:36;13.20;97.00
4908;DHT22;64375;51.540;7.364;2022-12-07T01:21:06;13.10;96.40
4908;DHT22;64375;51.540;7.364;2022-12-07T01:23:38;13.10;97.30
4908;DHT22;64375;51.540;7.364;2022-12-07T01:26:22;13.10;96.90
4908;DHT22;64375;51.540;7.364;2022-12-07T01:28:51;13.00;96.80
4908;DHT22;64375;51.540;7.364;2022-12-07T01:31:23;13.00;97.10
4908;DHT22;64375;51.540;7.364;2022-12-07T01:34:02;13.00;97.40
4908;DHT22;64375;51.540;7.364;2022-12-07T01:36:35;12.90;97.40
4908;DHT22;64375;51.540;7.364;2022-12-07T01:39:12;12.90;97.60
4908;DHT22;64375;51.540;7.364;2022-12-07T01:41:41;12.80;97.00
4908;DHT22;64375;51.540;7.364;2022-12-07T01:44:21;12.90;97.50
4908;DHT22;64375;51.540;7.364;2022-12-07T01:46:51;12.90;97.30
4908;DHT22;64375;51.540;7.364;2022-12-07T01:49:27;12.80;97.10
4908;DHT22;64375;51.540;7.364;2022-12-07T01:52:01;12.70;97.10
4908;DHT22;64375;51.540;7.364;2022-12-07T01:54:34;12.60;97.00
4908;DHT22;64375;51.540;7.364;2022-12-07T01:57:04;12.70;97.80
4908;DHT22;64375;51.540;7.364;2022-12-07T01:59:53;12.80;97.90
4908;DHT22;64375;51.540;7.364;2022-12-07T02:02:24;12.80;97.70
4908;DHT22;64375;51.540;7.364;2022-12-07T02:05:05;12.80;97.60
4908;DHT22;64375;51.540;7.364;2022-12-07T02:07:38;13.00;97.50
4908;DHT22;64375;51.540;7.364;2022-12-07T02:10:23;13.10;97.50
4908;DHT22;64375;51.540;7.364;2022-12-07T02:13:06;13.20;97.50
4908;DHT22;64375;51.540;7.364;2022-12-07T02:16:03;13.00;96.70
4908;DHT22;64375;51.540;7.364;2022-12-07T02:18:44;13.00;97.20
4908;DHT22;64375;51.540;7.364;2022-12-07T02:21:36;13.00;97.40
4908;DHT22;64375;51.540;7.364;2022-12-07T02:24:25;13.30;97.40
4908;DHT22;64375;51.540;7.364;2022-12-07T02:27:44;13.40;96.70
4908;DHT22;64375;51.540;7.364;2022-12-07T02:30:17;13.30;97.00
4908;DHT22;64375;51.540;7.364;2022-12-07T02:32:53;13.30;97.10
4908;DHT22;64375;51.540;7.364;2022-12-07T02:35:30;13.40;97.00
4908;DHT22;64375;51.540;7.364;2022-12-07T02:38:03;13.30;96.80
4908;DHT22;64375;51.540;7.364;2022-12-07T02:40:39;13.20;97.00
4908;DHT22;64375;51.540;7.364;2022-12-07T02:43:16;13.30;97.10
4908;DHT22;64375;51.540;7.364;2022-12-07T02:45:47;13.20;97.20
4908;DHT22;64375;51.540;7.364;2022-12-07T02:48:17;13.10;97.30
4908;DHT22;64375;51.540;7.364;2022-12-07T02:50:53;13.00;97.10
4908;DHT22;64375;51.540;7.364;2022-12-07T02:53:31;12.90;97.30
4908;DHT22;64375;51.540;7.364;2022-12-07T02:56:03;13.10;97.50
4908;DHT22;64375;51.540;7.364;2022-12-07T02:58:46;13.10;97.40
4908;DHT22;64375;51.540;7.364;2022-12-07T03:01:30;13.10;97.20
4908;DHT22;64375;51.540;7.364;2022-12-07T03:04:12;13.20;97.40
4908;DHT22;64375;51.540;7.364;2022-12-07T03:07:02;13.10;97.20
4908;DHT22;64375;51.540;7.364;2022-12-07T03:09:53;13.30;97.40
4908;DHT22;64375;51.540;7.364;2022-12-07T03:12:40;13.20;96.80
4908;DHT22;64375;51.540;7.364;2022-12-07T03:15:13;13.20;97.20
4908;DHT22;64375;51.540;7.364;2022-12-07T03:17:50;13.20;97.20
4908;DHT22;64375;51.540;7.364;2022-12-07T03:20:29;13.20;97.30
4908;DHT22;64375;51.540;7.364;2022-12-07T03:23:04;13.20;97.20
4908;DHT22;64375;51.540;7.364;2022-12-07T03:25:41;13.20;97.20
4908;DHT22;64375;51.540;7.364;2022-12-07T03:28:15;13.00;97.10
4908;DHT22;64375;51.540;7.364;2022-12-07T03:30:47;13.00;97.20
4908;DHT22;64375;51.540;7.364;2022-12-07T03:33:26;13.00;97.30
4908;DHT22;64375;51.540;7.364;2022-12-07T03:36:07;12.90;97.70
4908;DHT22;64375;51.540;7.364;2022-12-07T03:38:40;12.90;97.30
4908;DHT22;64375;51.540;7.364;2022-12-07T03:41:14;12.80;97.60
4908;DHT22;64375;51.540;7.364;2022-12-07T03:43:44;12.90;97.70
4908;DHT22;64375;51.540;7.364;2022-12-07T03:46:18;13.00;97.50
4908;DHT22;64375;51.540;7.364;2022-12-07T03:49:07;12.90;97.40
4908;DHT22;64375;51.540;7.364;2022-12-07T03:51:40;12.90;97.50
4908;DHT22;64375;51.540;7.364;2022-12-07T03:54:17;12.90;97.60
4908;DHT22;64375;51.540;7.364;2022-12-07T03:56:47;13.00;97.20
4908;DHT22;64375;51.540;7.364;2022-12-07T03:59:19;12.90;96.60
4908;DHT22;64375;51.540;7.364;2022-12-07T04:01:53;13.00;97.30
4908;DHT22;64375;51.540;7.364;2022-12-07T04:04:25;12.90;97.20
4908;DHT22;64375;51.540;7.364;2022-12-07T04:06:56;13.00;97.40
4908;DHT22;64375;51.540;7.364;2022-12-07T04:09:39;12.80;96.70
4908;DHT22;64375;51.540;7.364;2022-12-07T04:12:07;12.80;97.10
4908;DHT22;64375;51.540;7.364;2022-12-07T04:14:38;12.70;97.00
4908;DHT22;64375;51.540;7.364;2022-12-07T04:17:12;12.90;97.40
4908;DHT22;64375;51.540;7.364;2022-12-07T04:19:50;12.90;97.70
4908;DHT22;64375;51.540;7.364;2022-12-07T04:22:21;13.00;97.60
4908;DHT22;64375;51.540;7.364;2022-12-07T04:24:49;13.10;97.80
4908;DHT22;64375;51.540;7.364;2022-12-07T04:27:22;13.20;97.70
4908;DHT22;64375;51.540;7.364;2022-12-07T04:29:50;13.10;97.50
4908;DHT22;64375;51.540;7.364;2022-12-07T04:32:27;13.10;97.40
4908;DHT22;64375;51.540;7.364;2022-12-07T04:35:17;13.00;97.20
4908;DHT22;64375;51.540;7.364;2022-12-07T04:37:45;13.00;97.40
4908;DHT22;64375;51.540;7.364;2022-12-07T04:40:13;13.10;97.30
4908;DHT22;64375;51.540;7.364;2022-12-07T04:45:34;13.10;96.80
4908;DHT22;64375;51.540;7.364;2022-12-07T04:48:05;13.00;96.00
4908;DHT22;64375;51.540;7.364;2022-12-07T04:50:51;13.10;97.10
4908;DHT22;64375;51.540;7.364;2022-12-07T04:53:19;13.20;97.20
4908;DHT22;64375;51.540;7.364;2022-12-07T04:55:50;13.20;97.10
4908;DHT22;64375;51.540;7.364;2022-12-07T04:58:23;13.30;97.00
4908;DHT22;64375;51.540;7.364;2022-12-07T05:00:53;13.40;97.00
4908;DHT22;64375;51.540;7.364;2022-12-07T05:03:24;13.20;96.20
4908;DHT22;64375;51.540;7.364;2022-12-07T05:06:01;13.20;97.00
4908;DHT22;64375;51.540;7.364;2022-12-07T05:08:32;13.30;97.20
4908;DHT22;64375;51.540;7.364;2022-12-07T05:11:05;13.30;96.60
4908;DHT22;64375;51.540;7.364;2022-12-07T05:13:39;13.30;97.00
4908;DHT22;64375;51.540;7.364;2022-12-07T05:16:12;13.40;97.10
4908;DHT22;64375;51.540;7.364;2022-12-07T05:18:56;13.50;96.90
4908;DHT22;64375;51.540;7.364;2022-12-07T05:21:28;13.50;97.00
4908;DHT22;64375;51.540;7.364;2022-12-07T05:23:59;13.50;97.00
4908;DHT22;64375;51.540;7.364;2022-12-07T05:26:27;13.40;97.00
4908;DHT22;64375;51.540;7.364;2022-12-07T05:29:03;13.40;97.10
4908;DHT22;64375;51.540;7.364;2022-12-07T05:31:35;13.40;97.10
4908;DHT22;64375;51.540;7.364;2022-12-07T05:34:07;13.40;96.70
4908;DHT22;64375;51.540;7.364;2022-12-07T05:36:37;13.60;96.90
4908;DHT22;64375;51.540;7.364;2022-12-07T05:39:05;13.50;96.50
4908;DHT22;64375;51.540;7.364;2022-12-07T05:41:36;13.40;95.90
4908;DHT22;64375;51.540;7.364;2022-12-07T05:44:22;13.30;96.60
4908;DHT22;64375;51.540;7.364;2022-12-07T05:46:52;13.60;97.00
4908;DHT22;64375;51.540;7.364;2022-12-07T05:49:26;13.60;96.50
4908;DHT22;64375;51.540;7.364;2022-12-07T05:51:58;13.60;96.60
4908;DHT22;64375;51.540;7.364;2022-12-07T05:54:28;13.60;96.70
4908;DHT22;64375;51.540;7.364;2022-12-07T05:57:02;13.50;96.30
4908;DHT22;64375;51.540;7.364;2022-12-07T05:59:33;13.50;96.70
4908;DHT22;64375;51.540;7.364;2022-12-07T06:02:01;13.40;96.80
4908;DHT22;64375;51.540;7.364;2022-12-07T06:04:31;13.30;96.80
4908;DHT22;64375;51.540;7.364;2022-12-07T06:07:04;13.40;96.70
4908;DHT22;64375;51.540;7.364;2022-12-07T06:09:35;13.50;96.80
4908;DHT22;64375;51.540;7.364;2022-12-07T06:12:09;13.50;96.80
4908;DHT22;64375;51.540;7.364;2022-12-07T06:14:58;13.40;96.70
4908;DHT22;64375;51.540;7.364;2022-12-07T06:17:28;13.40;96.70
4908;DHT22;64375;51.540;7.364;2022-12-07T06:19:56;13.50;96.70
4908;DHT22;64375;51.540;7.364;2022-12-07T06:22:27;13.50;96.10
4908;DHT22;64375;51.540;7.364;2022-12-07T06:24:55;13.40;95.20
4908;DHT22;64375;51.540;7.364;2022-12-07T06:27:26;13.40;96.40
4908;DHT22;64375;51.540;7.364;2022-12-07T06:29:54;13.30;94.90
4908;DHT22;64375;51.540;7.364;2022-12-07T06:32:24;13.50;96.50
4908;DHT22;64375;51.540;7.364;2022-12-07T06:34:55;13.80;96.40
4908;DHT22;64375;51.540;7.364;2022-12-07T06:37:24;14.10;96.10
4908;DHT22;64375;51.540;7.364;2022-12-07T06:39:58;13.90;96.00
4908;DHT22;64375;51.540;7.364;2022-12-07T06:42:29;13.70;96.10
4908;DHT22;64375;51.540;7.364;2022-12-07T06:45:00;13.50;95.20
4908;DHT22;64375;51.540;7.364;2022-12-07T06:47:28;13.20;94.70
4908;DHT22;64375;51.540;7.364;2022-12-07T06:50:12;13.30;96.50
4908;DHT22;64375;51.540;7.364;2022-12-07T06:52:41;13.40;96.70
4908;DHT22;64375;51.540;7.364;2022-12-07T06:55:09;13.40;96.20
4908;DHT22;64375;51.540;7.364;2022-12-07T06:57:40;13.10;94.40
4908;DHT22;64375;51.540;7.364;2022-12-07T07:00:11;13.00;96.10
4908;DHT22;64375;51.540;7.364;2022-12-07T07:02:53;12.90;95.70
4908;DHT22;64375;51.540;7.364;2022-12-07T07:05:21;13.00;96.70
4908;DHT22;64375;51.540;7.364;2022-12-07T07:07:54;13.10;97.00
4908;DHT22;64375;51.540;7.364;2022-12-07T07:10:45;13.10;96.70
4908;DHT22;64375;51.540;7.364;2022-12-07T07:13:13;13.20;96.50
4908;DHT22;64375;51.540;7.364;2022-12-07T07:15:44;13.00;95.60
4908;DHT22;64375;51.540;7.364;2022-12-07T07:18:12;13.10;96.70
4908;DHT22;64375;51.540;7.364;2022-12-07T07:20:40;13.20;96.70
4908;DHT22;64375;51.540;7.364;2022-12-07T07:23:09;13.20;96.60
4908;DHT22;64375;51.540;7.364;2022-12-07T07:25:37;13.20;96.50
4908;DHT22;64375;51.540;7.364;2022-12-07T07:28:17;13.10;95.30
4908;DHT22;64375;51.540;7.364;2022-12-07T07:30:53;13.10;96.50
4908;DHT22;64375;51.540;7.364;2022-12-07T07:33:27;13.00;95.20
4908;DHT22;64375;51.540;7.364;2022-12-07T07:35:56;13.00;96.30
4908;DHT22;64375;51.540;7.364;2022-12-07T07:38:27;12.90;95.50
4908;DHT22;64375;51.540;7.364;2022-12-07T07:40:58;12.90;96.10
4908;DHT22;64375;51.540;7.364;2022-12-07T07:43:26;12.80;95.60
4908;DHT22;64375;51.540;7.364;2022-12-07T07:45:54;12.80;96.80
4908;DHT22;64375;51.540;7.364;2022-12-07T07:48:22;12.80;97.10
4908;DHT22;64375;51.540;7.364;2022-12-07T07:50:51;12.70;95.50
4908;DHT22;64375;51.540;7.364;2022-12-07T07:53:22;12.50;95.60
4908;DHT22;64375;51.540;7.364;2022-12-07T07:55:52;12.60;96.80
4908;DHT22;64375;51.540;7.364;2022-12-07T07:58:27;12.70;97.10
4908;DHT22;64375;51.540;7.364;2022-12-07T08:01:05;12.60;95.90
4908;DHT22;64375;51.540;7.364;2022-12-07T08:03:36;12.50;95.30
4908;DHT22;64375;51.540;7.364;2022-12-07T08:06:05;12.50;95.10
4908;DHT22;64375;51.540;7.364;2022-12-07T08:08:36;12.40;95.90
4908;DHT22;64375;51.540;7.364;2022-12-07T08:11:09;12.60;97.00
4908;DHT22;64375;51.540;7.364;2022-12-07T08:13:37;12.70;97.30
4908;DHT22;64375;51.540;7.364;2022-12-07T08:16:07;13.20;96.00
4908;DHT22;64375;51.540;7.364;2022-12-07T08:18:42;13.20;92.80
4908;DHT22;64375;51.540;7.364;2022-12-07T08:21:12;13.10;91.70
4908;DHT22;64375;51.540;7.364;2022-12-07T08:23:40;12.80;91.40
4908;DHT22;64375;51.540;7.364;2022-12-07T08:26:15;12.70;91.80
4908;DHT22;64375;51.540;7.364;2022-12-07T08:28:43;12.60;92.80
4908;DHT22;64375;51.540;7.364;2022-12-07T08:31:15;12.50;93.00
4908;DHT22;64375;51.540;7.364;2022-12-07T08:33:57;12.60;93.70
4908;DHT22;64375;51.540;7.364;2022-12-07T08:36:31;12.60;94.20
4908;DHT22;64375;51.540;7.364;2022-12-07T08:39:08;12.70;94.60
4908;DHT22;64375;51.540;7.364;2022-12-07T08:41:57;12.80;94.60
4908;DHT22;64375;51.540;7.364;2022-12-07T08:44:31;12.90;94.90
4908;DHT22;64375;51.540;7.364;2022-12-07T08:47:01;13.00;95.00
4908;DHT22;64375;51.540;7.364;2022-12-07T08:49:47;13.10;95.10
4908;DHT22;64375;51.540;7.364;2022-12-07T08:52:22;13.30;95.00
4908;DHT22;64375;51.540;7.364;2022-12-07T08:54:50;13.40;95.00
4908;DHT22;64375;51.540;7.364;2022-12-07T08:57:28;13.30;94.10
4908;DHT22;64375;51.540;7.364;2022-12-07T09:00:03;13.40;95.20
4908;DHT22;64375;51.540;7.364;2022-12-07T09:02:31;13.40;94.80
4908;DHT22;64375;51.540;7.364;2022-12-07T09:04:59;13.30;93.60
4908;DHT22;64375;51.540;7.364;2022-12-07T09:07:30;13.30;95.10
4908;DHT22;64375;51.540;7.364;2022-12-07T09:10:00;13.40;95.30
4908;DHT22;64375;51.540;7.364;2022-12-07T09:12:29;13.50;95.30
4908;DHT22;64375;51.540;7.364;2022-12-07T09:15:06;13.70;95.30
4908;DHT22;64375;51.540;7.364;2022-12-07T09:17:35;13.60;95.30
4908;DHT22;64375;51.540;7.364;2022-12-07T09:20:07;13.60;94.80
4908;DHT22;64375;51.540;7.364;2022-12-07T09:22:35;13.70;95.30
4908;DHT22;64375;51.540;7.364;2022-12-07T09:25:09;13.90;95.00
4908;DHT22;64375;51.540;7.364;2022-12-07T09:27:39;13.80;94.80
4908;DHT22;64375;51.540;7.364;2022-12-07T09:30:07;13.90;95.20
4908;DHT22;64375;51.540;7.364;2022-12-07T09:32:38;13.90;95.20
4908;DHT22;64375;51.540;7.364;2022-12-07T09:35:09;14.00;95.40
4908;DHT22;64375;51.540;7.364;2022-12-07T09:37:37;13.90;94.50
4908;DHT22;64375;51.540;7.364;2022-12-07T09:40:06;13.90;95.30
4908;DHT22;64375;51.540;7.364;2022-12-07T09:42:36;14.10;95.20
4908;DHT22;64375;51.540;7.364;2022-12-07T09:45:15;14.20;95.20
4908;DHT22;64375;51.540;7.364;2022-12-07T09:47:43;14.10;92.70
4908;DHT22;64375;51.540;7.364;2022-12-07T09:50:16;13.70;91.90
4908;DHT22;64375;51.540;7.364;2022-12-07T09:52:47;13.60;92.30
4908;DHT22;64375;51.540;7.364;2022-12-07T09:55:21;13.50;92.90
4908;DHT22;64375;51.540;7.364;2022-12-07T09:57:50;13.60;92.30
4908;DHT22;64375;51.540;7.364;2022-12-07T10:00:26;13.60;93.00
4908;DHT22;64375;51.540;7.364;2022-12-07T10:02:56;13.80;92.60
4908;DHT22;64375;51.540;7.364;2022-12-07T10:05:29;13.90;93.70
4908;DHT22;64375;51.540;7.364;2022-12-07T10:07:57;13.80;92.40
4908;DHT22;64375;51.540;7.364;2022-12-07T10:10:32;13.60;93.30
4908;DHT22;64375;51.540;7.364;2022-12-07T10:13:08;13.60;93.70
4908;DHT22;64375;51.540;7.364;2022-12-07T10:15:47;13.50;94.30
4908;DHT22;64375;51.540;7.364;2022-12-07T10:18:25;13.70;94.30
4908;DHT22;64375;51.540;7.364;2022-12-07T10:21:12;13.60;94.60
4908;DHT22;64375;51.540;7.364;2022-12-07T10:23:42;13.50;94.90
4908;DHT22;64375;51.540;7.364;2022-12-07T10:26:20;13.50;94.80
4908;DHT22;64375;51.540;7.364;2022-12-07T10:28:52;14.00;94.50
4908;DHT22;64375;51.540;7.364;2022-12-07T10:31:28;14.10;94.80
4908;DHT22;64375;51.540;7.364;2022-12-07T10:34:00;14.30;94.50
4908;DHT22;64375;51.540;7.364;2022-12-07T10:36:35;14.30;94.80
4908;DHT22;64375;51.540;7.364;2022-12-07T10:39:10;14.30;94.80
4908;DHT22;64375;51.540;7.364;2022-12-07T10:41:53;14.20;93.80
4908;DHT22;64375;51.540;7.364;2022-12-07T10:44:22;14.20;94.80
4908;DHT22;64375;51.540;7.364;2022-12-07T10:47:11;14.10;94.90
4908;DHT22;64375;51.540;7.364;2022-12-07T10:53:14;13.90;94.90
4908;DHT22;64375;51.540;7.364;2022-12-07T10:56:00;14.00;94.50
4908;DHT22;64375;51.540;7.364;2022-12-07T10:58:49;14.10;95.10
4908;DHT22;64375;51.540;7.364;2022-12-07T11:01:29;14.20;95.20
4908;DHT22;64375;51.540;7.364;2022-12-07T11:04:31;14.20;95.10
4908;DHT22;64375;51.540;7.364;2022-12-07T11:07:10;14.20;95.00
4908;DHT22;64375;51.540;7.364;2022-12-07T11:09:55;14.20;94.10
4908;DHT22;64375;51.540;7.364;2022-12-07T11:15:31;14.10;95.20
4908;DHT22;64375;51.540;7.364;2022-12-07T11:18:06;14.20;95.30
4908;DHT22;64375;51.540;7.364;2022-12-07T11:20:43;14.10;94.60
4908;DHT22;64375;51.540;7.364;2022-12-07T11:23:27;14.10;94.90
4908;DHT22;64375;51.540;7.364;2022-12-07T11:26:10;14.10;94.80
4908;DHT22;64375;51.540;7.364;2022-12-07T11:29:02;14.20;94.00
4908;DHT22;64375;51.540;7.364;2022-12-07T11:31:52;14.20;94.80
4908;DHT22;64375;51.540;7.364;2022-12-07T11:34:30;14.20;94.60
4908;DHT22;64375;51.540;7.364;2022-12-07T11:37:09;14.40;94.80
4908;DHT22;64375;51.540;7.364;2022-12-07T11:39:43;14.40;94.50
4908;DHT22;64375;51.540;7.364;2022-12-07T11:42:21;14.40;94.90
4908;DHT22;64375;51.540;7.364;2022-12-07T11:44:56;14.40;94.80
4908;DHT22;64375;51.540;7.364;2022-12-07T11:47:34;14.40;94.80
4908;DHT22;64375;51.540;7.364;2022-12-07T11:50:25;14.10;94.50
4908;DHT22;64375;51.540;7.364;2022-12-07T11:53:10;14.20;94.50
4908;DHT22;64375;51.540;7.364;2022-12-07T11:55:51;14.10;95.10
4908;DHT22;64375;51.540;7.364;2022-12-07T11:58:40;14.10;95.30
4908;DHT22;64375;51.540;7.364;2022-12-07T12:01:24;14.00;95.40
4908;DHT22;64375;51.540;7.364;2022-12-07T12:04:02;13.90;95.10
4908;DHT22;64375;51.540;7.364;2022-12-07T12:06:34;13.90;95.50
4908;DHT22;64375;51.540;7.364;2022-12-07T12:09:06;14.00;95.60
4908;DHT22;64375;51.540;7.364;2022-12-07T12:12:31;14.10;95.50
4908;DHT22;64375;51.540;7.364;2022-12-07T12:15:42;14.10;95.50
4908;DHT22;64375;51.540;7.364;2022-12-07T12:18:43;14.10;95.30
4908;DHT22;64375;51.540;7.364;2022-12-07T12:21:15;14.20;95.40
4908;DHT22;64375;51.540;7.364;2022-12-07T12:23:50;14.10;95.00
4908;DHT22;64375;51.540;7.364;2022-12-07T12:26:36;14.10;95.00
4908;DHT22;64375;51.540;7.364;2022-12-07T12:29:20;14.00;94.90
4908;DHT22;64375;51.540;7.364;2022-12-07T12:32:14;14.20;95.30
4908;DHT22;64375;51.540;7.364;2022-12-07T12:34:59;14.40;95.40
4908;DHT22;64375;51.540;7.364;2022-12-07T12:37:43;14.40;95.20
4908;DHT22;64375;51.540;7.364;2022-12-07T12:43:55;14.30;95.10
4908;DHT22;64375;51.540;7.364;2022-12-07T12:46:49;14.20;95.00
4908;DHT22;64375;51.540;7.364;2022-12-07T12:49:37;14.00;94.90
4908;DHT22;64375;51.540;7.364;2022-12-07T12:55:23;14.10;95.30
4908;DHT22;64375;51.540;7.364;2022-12-07T13:01:36;14.20;94.70
4908;DHT22;64375;51.540;7.364;2022-12-07T13:04:30;14.00;94.70
4908;DHT22;64375;51.540;7.364;2022-12-07T13:07:12;13.80;92.50
4908;DHT22;64375;51.540;7.364;2022-12-07T13:09:44;13.70;95.40
4908;DHT22;64375;51.540;7.364;2022-12-07T13:12:16;13.80;95.00
4908;DHT22;64375;51.540;7.364;2022-12-07T13:15:19;13.70;95.30
4908;DHT22;64375;51.540;7.364;2022-12-07T13:18:03;14.00;95.60
4908;DHT22;64375;51.540;7.364;2022-12-07T13:20:51;13.90;93.40
4908;DHT22;64375;51.540;7.364;2022-12-07T13:23:29;13.80;95.10
4908;DHT22;64375;51.540;7.364;2022-12-07T13:26:08;14.00;95.80
4908;DHT22;64375;51.540;7.364;2022-12-07T13:28:50;14.20;94.40
4908;DHT22;64375;51.540;7.364;2022-12-07T13:31:37;14.30;95.10
4908;DHT22;64375;51.540;7.364;2022-12-07T13:34:31;14.10;93.90
4908;DHT22;64375;51.540;7.364;2022-12-07T13:37:00;14.10;95.30
4908;DHT22;64375;51.540;7.364;2022-12-07T13:39:29;14.10;94.00
4908;DHT22;64375;51.540;7.364;2022-12-07T13:42:15;14.20;94.20
4908;DHT22;64375;51.540;7.364;2022-12-07T13:44:51;14.20;94.90
4908;DHT22;64375;51.540;7.364;2022-12-07T13:47:26;14.20;93.90
4908;DHT22;64375;51.540;7.364;2022-12-07T13:50:24;14.30;94.40
4908;DHT22;64375;51.540;7.364;2022-12-07T13:53:00;14.40;94.90
4908;DHT22;64375;51.540;7.364;2022-12-07T13:55:36;14.40;94.40
4908;DHT22;64375;51.540;7.364;2022-12-07T13:58:25;14.40;94.70
4908;DHT22;64375;51.540;7.364;2022-12-07T14:00:54;14.30;94.80
4908;DHT22;64375;51.540;7.364;2022-12-07T14:03:31;14.30;94.30
4908;DHT22;64375;51.540;7.364;2022-12-07T14:08:48;14.40;95.10
4908;DHT22;64375;51.540;7.364;2022-12-07T14:11:31;14.30;92.70
4908;DHT22;64375;51.540;7.364;2022-12-07T14:14:00;14.30;91.60
4908;DHT22;64375;51.540;7.364;2022-12-07T14:16:30;14.20;92.00
4908;DHT22;64375;51.540;7.364;2022-12-07T14:19:00;14.30;93.10
4908;DHT22;64375;51.540;7.364;2022-12-07T14:21:33;14.40;93.20
4908;DHT22;64375;51.540;7.364;2022-12-07T14:24:14;14.40;93.10
4908;DHT22;64375;51.540;7.364;2022-12-07T14:26:45;14.50;93.30
4908;DHT22;64375;51.540;7.364;2022-12-07T14:29:34;14.50;93.40
4908;DHT22;64375;51.540;7.364;2022-12-07T14:32:26;14.60;93.50
4908;DHT22;64375;51.540;7.364;2022-12-07T14:35:10;14.50;92.80
4908;DHT22;64375;51.540;7.364;2022-12-07T14:37:49;14.50;93.60
4908;DHT22;64375;51.540;7.364;2022-12-07T14:40:19;14.20;93.20
4908;DHT22;64375;51.540;7.364;2022-12-07T14:42:48;14.20;93.90
4908;DHT22;64375;51.540;7.364;2022-12-07T14:45:20;14.00;93.70
4908;DHT22;64375;51.540;7.364;2022-12-07T14:47:51;14.00;94.20
4908;DHT22;64375;51.540;7.364;2022-12-07T14:50:44;14.10;94.40
4908;DHT22;64375;51.540;7.364;2022-12-07T14:53:37;14.30;93.20
4908;DHT22;64375;51.540;7.364;2022-12-07T14:56:10;14.40;89.60
4908;DHT22;64375;51.540;7.364;2022-12-07T14:58:38;14.60;90.00
4908;DHT22;64375;51.540;7.364;2022-12-07T15:01:06;14.50;88.20
4908;DHT22;64375;51.540;7.364;2022-12-07T15:03:34;14.30;85.40
4908;DHT22;64375;51.540;7.364;2022-12-07T15:06:05;13.10;85.80
4908;DHT22;64375;51.540;7.364;2022-12-07T15:08:46;13.00;90.30
4908;DHT22;64375;51.540;7.364;2022-12-07T15:11:20;13.10;91.60
4908;DHT22;64375;51.540;7.364;2022-12-07T15:13:57;12.80;88.60
4908;DHT22;64375;51.540;7.364;2022-12-07T15:16:46;12.70;91.60
4908;DHT22;64375;51.540;7.364;2022-12-07T15:19:33;12.80;92.70
4908;DHT22;64375;51.540;7.364;2022-12-07T15:22:04;12.80;91.60
4908;DHT22;64375;51.540;7.364;2022-12-07T15:24:36;12.70;91.70
4908;DHT22;64375;51.540;7.364;2022-12-07T15:27:04;12.60;91.90
4908;DHT22;64375;51.540;7.364;2022-12-07T15:29:38;12.70;91.80
4908;DHT22;64375;51.540;7.364;2022-12-07T15:32:12;12.60;91.00
4908;DHT22;64375;51.540;7.364;2022-12-07T15:34:40;12.50;92.70
4908;DHT22;64375;51.540;7.364;2022-12-07T15:37:12;12.60;93.90
4908;DHT22;64375;51.540;7.364;2022-12-07T15:39:42;12.80;94.40
4908;DHT22;64375;51.540;7.364;2022-12-07T15:42:10;12.80;92.50
4908;DHT22;64375;51.540;7.364;2022-12-07T15:44:52;12.80;91.70
4908;DHT22;64375;51.540;7.364;2022-12-07T15:47:40;12.60;93.00
4908;DHT22;64375;51.540;7.364;2022-12-07T15:50:32;12.50;92.20
4908;DHT22;64375;51.540;7.364;2022-12-07T15:52:59;12.60;94.90
4908;DHT22;64375;51.540;7.364;2022-12-07T15:55:29;12.90;94.60
4908;DHT22;64375;51.540;7.364;2022-12-07T15:58:02;13.00;93.50
4908;DHT22;64375;51.540;7.364;2022-12-07T16:00:36;12.50;91.90
4908;DHT22;64375;51.540;7.364;2022-12-07T16:03:10;12.60;94.40
4908;DHT22;64375;51.540;7.364;2022-12-07T16:05:38;12.70;93.60
4908;DHT22;64375;51.540;7.364;2022-12-07T16:08:11;12.60;92.30
4908;DHT22;64375;51.540;7.364;2022-12-07T16:10:44;12.50;92.50
4908;DHT22;64375;51.540;7.364;2022-12-07T16:13:12;12.10;91.10
4908;DHT22;64375;51.540;7.364;2022-12-07T16:15:52;12.20;94.30
4908;DHT22;64375;51.540;7.364;2022-12-07T16:18:20;12.40;95.30
4908;DHT22;64375;51.540;7.364;2022-12-07T16:20:48;12.40;93.50
4908;DHT22;64375;51.540;7.364;2022-12-07T16:23:22;12.40;93.20
4908;DHT22;64375;51.540;7.364;2022-12-07T16:25:54;12.40;94.00
4908;DHT22;64375;51.540;7.364;2022-12-07T16:28:22;12.60;94.90
4908;DHT22;64375;51.540;7.364;2022-12-07T16:31:12;12.60;94.40
4908;DHT22;64375;51.540;7.364;2022-12-07T16:33:42;12.50;94.20
4908;DHT22;64375;51.540;7.364;2022-12-07T16:36:11;12.20;92.80
4908;DHT22;64375;51.540;7.364;2022-12-07T16:38:39;11.90;91.20
4908;DHT22;64375;51.540;7.364;2022-12-07T16:41:16;11.90;93.90
4908;DHT22;64375;51.540;7.364;2022-12-07T16:43:44;12.00;94.40
4908;DHT22;64375;51.540;7.364;2022-12-07T16:46:12;12.20;95.70
4908;DHT22;64375;51.540;7.364;2022-12-07T16:48:57;12.10;93.40
4908;DHT22;64375;51.540;7.364;2022-12-07T16:51:24;12.00;94.20
4908;DHT22;64375;51.540;7.364;2022-12-07T16:53:53;11.70;92.70
4908;DHT22;64375;51.540;7.364;2022-12-07T16:56:22;12.10;96.10
4908;DHT22;64375;51.540;7.364;2022-12-07T16:58:55;12.20;96.20